You are not logged in, Click here to log in
Philip S. W. Goldson International Airport / MZBZ Belize City
ICAO: MZBZ Country: Belize City
Latitude: 17.5391 Longitude: -88.3082
Total Arrivals: 1 Total Departures: 1
Latest Arrival: FS9012 (MMPR-MZBZ)Arthur. Kung Latest Departure: FS9013 (MZBZ-MHTG)Arthur. Kung
Scenery:
METAR : MZBZ 240000Z 16005KT 9999 FEW023 29/26 A2978 Q1008 NOSIG RMK CBTOP/SW

Philip S. W. Goldson International Airport

You are accessing this site from IP address 34.201.9.19. Virtual Airline. CMS by phpVMS.Website designed by Zumeweb and edited by Theo Bearman.
There is 0 User(s) Online: | and 21 Guest(s) Online.
All information on this site is for fight simulation purposes only. This site is for flight logging for pilots of Virtual Airline&模擬飛行論壇 FlySim only.